createdAt,value
2019-02-17T00:02:36.005Z,96846.63
2019-02-17T00:05:26.119Z,96840.70
2019-02-17T00:08:14.173Z,96840.44
2019-02-17T00:11:04.432Z,96842.52
2019-02-17T00:13:52.560Z,96842.98
2019-02-17T00:16:40.806Z,96845.11
2019-02-17T00:19:28.709Z,96847.28
2019-02-17T00:22:16.724Z,96845.72
2019-02-17T00:25:04.701Z,96845.44
2019-02-17T00:27:53.436Z,96838.05
2019-02-17T00:30:41.656Z,96839.53
2019-02-17T00:33:29.848Z,96841.61
2019-02-17T00:36:17.643Z,96835.73
2019-02-17T00:39:06.735Z,96842.15
2019-02-17T00:41:55.000Z,96841.03
2019-02-17T00:44:43.360Z,96836.95
2019-02-17T00:47:30.974Z,96838.85
2019-02-17T00:50:19.083Z,96838.34
2019-02-17T00:53:06.950Z,96833.14
2019-02-17T00:55:54.904Z,96831.89
2019-02-17T00:58:43.358Z,96828.03
2019-02-17T01:01:31.148Z,96821.88
2019-02-17T01:04:18.762Z,96821.88
2019-02-17T01:07:06.863Z,96822.70
2019-02-17T01:09:54.726Z,96827.24
2019-02-17T01:12:43.018Z,96817.81
2019-02-17T01:15:30.826Z,96823.97
2019-02-17T01:18:18.500Z,96824.75
2019-02-17T01:21:06.294Z,96830.67
2019-02-17T01:23:54.100Z,96824.69
2019-02-17T01:26:42.341Z,96824.92
2019-02-17T01:29:30.361Z,96824.78
2019-02-17T01:32:18.633Z,96823.23
2019-02-17T01:35:06.734Z,96824.37
2019-02-17T01:37:54.311Z,96823.27
2019-02-17T01:40:42.745Z,96826.48
2019-02-17T01:43:31.020Z,96836.98
2019-02-17T01:46:18.827Z,96832.41
2019-02-17T01:49:07.122Z,96824.78
2019-02-17T01:51:55.086Z,96827.63
2019-02-17T01:54:42.984Z,96825.78
2019-02-17T01:57:31.193Z,96822.34
2019-02-17T02:00:18.842Z,96821.57
2019-02-17T02:03:07.028Z,96819.94
2019-02-17T02:05:54.882Z,96813.78
2019-02-17T02:08:42.831Z,96812.46
2019-02-17T02:11:30.640Z,96807.70
2019-02-17T02:14:18.767Z,96810.11
2019-02-17T02:17:06.915Z,96808.44
2019-02-17T02:19:55.199Z,96802.06
2019-02-17T02:22:43.401Z,96800.95
2019-02-17T02:25:31.641Z,96799.33
2019-02-17T02:28:19.611Z,96800.94
2019-02-17T02:31:07.459Z,96798.25
2019-02-17T02:33:55.397Z,96795.16
2019-02-17T02:36:43.330Z,96795.67
2019-02-17T02:39:31.538Z,96786.52
2019-02-17T02:42:19.355Z,96792.76
2019-02-17T02:45:08.153Z,96789.81
2019-02-17T02:47:56.288Z,96784.17
2019-02-17T02:50:44.248Z,96789.24
2019-02-17T02:53:32.129Z,96793.48
2019-02-17T02:56:19.984Z,96783.55
2019-02-17T02:59:08.236Z,96785.45
2019-02-17T03:01:56.615Z,96783.05
2019-02-17T03:04:44.390Z,96782.84
2019-02-17T03:07:32.555Z,96787.75
2019-02-17T03:10:20.376Z,96783.17
2019-02-17T03:13:08.949Z,96787.05
2019-02-17T03:15:56.747Z,96786.08
2019-02-17T03:18:44.664Z,96791.35
2019-02-17T03:21:32.533Z,96782.55
2019-02-17T03:24:20.930Z,96783.89
2019-02-17T03:27:08.906Z,96786.86
2019-02-17T03:30:04.437Z,96790.71
2019-02-17T03:32:45.773Z,96788.19
2019-02-17T03:35:33.815Z,96792.82
2019-02-17T03:38:21.612Z,96787.14
2019-02-17T03:41:09.880Z,96789.22
2019-02-17T03:43:57.817Z,96783.81
2019-02-17T03:46:45.705Z,96791.53
2019-02-17T03:49:33.536Z,96796.34
2019-02-17T03:52:21.482Z,96794.97
2019-02-17T03:55:09.680Z,96795.00
2019-02-17T03:57:57.661Z,96795.36
2019-02-17T04:00:45.846Z,96797.03
2019-02-17T04:03:33.798Z,96793.30
2019-02-17T04:06:21.629Z,96794.50
2019-02-17T04:09:09.922Z,96793.06
2019-02-17T04:11:57.998Z,96795.94
2019-02-17T04:14:45.820Z,96792.69
2019-02-17T04:17:33.670Z,96795.06
2019-02-17T04:20:21.528Z,96791.33
2019-02-17T04:23:09.185Z,96783.84
2019-02-17T04:25:57.088Z,96788.23
2019-02-17T04:28:45.096Z,96786.30
2019-02-17T04:31:33.040Z,96788.69
2019-02-17T04:34:20.920Z,96784.96
2019-02-17T04:37:08.787Z,96782.28
2019-02-17T04:39:56.855Z,96786.66
2019-02-17T04:42:44.747Z,96790.09
2019-02-17T04:45:33.210Z,96783.42
2019-02-17T04:48:21.157Z,96788.58
2019-02-17T04:51:09.201Z,96780.45
2019-02-17T04:53:57.529Z,96788.96
2019-02-17T04:56:46.941Z,96783.56
2019-02-17T04:59:35.194Z,96782.55
2019-02-17T05:02:23.132Z,96781.10
2019-02-17T05:05:10.674Z,96775.87
2019-02-17T05:07:59.245Z,96777.11
2019-02-17T05:10:47.066Z,96775.31
2019-02-17T05:13:35.206Z,96773.76
2019-02-17T05:16:22.705Z,96774.92
2019-02-17T05:19:10.974Z,96768.48
2019-02-17T05:21:59.242Z,96769.78
2019-02-17T05:24:47.365Z,96759.12
2019-02-17T05:27:35.251Z,96763.94
2019-02-17T05:30:23.366Z,96764.29
2019-02-17T05:33:11.297Z,96762.57
2019-02-17T05:35:59.284Z,96764.05
2019-02-17T05:38:47.090Z,96773.12
2019-02-17T05:41:35.248Z,96774.36
2019-02-17T05:44:23.433Z,96774.73
2019-02-17T05:47:11.403Z,96776.50
2019-02-17T05:49:58.883Z,96776.39
2019-02-17T05:52:47.150Z,96780.33
2019-02-17T05:55:35.227Z,96765.82
2019-02-17T05:58:23.389Z,96771.13
2019-02-17T06:01:11.273Z,96773.43
2019-02-17T06:03:59.121Z,96777.13
2019-02-17T06:06:47.124Z,96776.72
2019-02-17T06:09:35.204Z,96777.64
2019-02-17T06:12:23.230Z,96774.59
2019-02-17T06:15:11.490Z,96776.76
2019-02-17T06:17:59.814Z,96774.74
2019-02-17T06:20:47.304Z,96770.16
2019-02-17T06:23:35.213Z,96771.61
2019-02-17T06:26:23.200Z,96772.50
2019-02-17T06:29:11.197Z,96777.70
2019-02-17T06:31:59.273Z,96782.39
2019-02-17T06:34:47.254Z,96789.24
2019-02-17T06:37:35.101Z,96785.97
2019-02-17T06:40:23.219Z,96782.14
2019-02-17T06:43:11.320Z,96790.06
2019-02-17T06:45:59.430Z,96785.37
2019-02-17T06:48:47.294Z,96790.84
2019-02-17T06:51:35.770Z,96793.54
2019-02-17T06:54:23.949Z,96789.48
2019-02-17T06:57:16.271Z,96791.80
2019-02-17T07:00:18.542Z,96789.08
2019-02-17T07:03:06.606Z,96788.03
2019-02-17T07:06:17.423Z,96790.89
2019-02-17T07:09:06.570Z,96793.14
2019-02-17T07:11:56.784Z,96783.30
2019-02-17T07:14:43.762Z,96778.27
2019-02-17T07:17:31.939Z,96785.03
2019-02-17T07:20:19.899Z,96786.59
2019-02-17T07:23:08.533Z,96794.22
2019-02-17T07:25:56.618Z,96791.95
2019-02-17T07:28:44.677Z,96794.20
2019-02-17T07:31:35.277Z,96788.05
2019-02-17T07:34:22.193Z,96780.62
2019-02-17T07:37:10.637Z,96782.30
2019-02-17T07:39:58.348Z,96782.54
2019-02-17T07:42:46.263Z,96780.14
2019-02-17T07:45:34.146Z,96780.21
2019-02-17T07:48:22.272Z,96780.54
2019-02-17T07:51:10.074Z,96771.47
2019-02-17T07:53:57.960Z,96769.16
2019-02-17T07:56:45.869Z,96770.45
2019-02-17T07:59:33.815Z,96767.66
2019-02-17T08:02:22.088Z,96770.31
2019-02-17T08:05:10.354Z,96772.06
2019-02-17T08:07:58.513Z,96765.73
2019-02-17T08:10:46.972Z,96773.12
2019-02-17T08:13:34.507Z,96774.45
2019-02-17T08:16:22.700Z,96768.40
2019-02-17T08:19:10.891Z,96762.04
2019-02-17T08:21:58.950Z,96762.70
2019-02-17T08:24:47.244Z,96758.20
2019-02-17T08:27:35.248Z,96759.55
2019-02-17T08:30:23.426Z,96759.70
2019-02-17T08:33:11.758Z,96757.58
2019-02-17T08:35:59.643Z,96760.83
2019-02-17T08:38:47.730Z,96751.03
2019-02-17T08:41:35.498Z,96755.69
2019-02-17T08:44:23.510Z,96747.48
2019-02-17T08:47:11.271Z,96753.66
2019-02-17T08:49:58.854Z,96744.13
2019-02-17T08:52:46.778Z,96745.80
2019-02-17T08:55:34.770Z,96737.45
2019-02-17T08:58:22.682Z,96737.01
2019-02-17T09:01:10.282Z,96736.78
2019-02-17T09:03:57.791Z,96737.50
2019-02-17T09:06:45.851Z,96737.60
2019-02-17T09:09:33.923Z,96729.78
2019-02-17T09:12:22.081Z,96736.42
2019-02-17T09:15:10.778Z,96730.55
2019-02-17T09:17:58.734Z,96732.72
2019-02-17T09:20:46.898Z,96730.00
2019-02-17T09:23:35.038Z,96733.00
2019-02-17T09:26:22.849Z,96731.27
2019-02-17T09:29:11.685Z,96737.41
2019-02-17T09:31:59.650Z,96736.84
2019-02-17T09:34:47.508Z,96729.97
2019-02-17T09:37:35.191Z,96728.83
2019-02-17T09:40:23.418Z,96729.83
2019-02-17T09:43:11.369Z,96735.58
2019-02-17T09:45:59.506Z,96736.85
2019-02-17T09:48:47.709Z,96731.52
2019-02-17T09:51:35.592Z,96732.73
2019-02-17T09:54:23.674Z,96734.25
2019-02-17T09:57:11.826Z,96739.92
2019-02-17T09:59:59.912Z,96740.64
2019-02-17T10:02:48.069Z,96734.34
2019-02-17T10:05:36.060Z,96733.00
2019-02-17T10:08:23.906Z,96737.89
2019-02-17T10:11:12.028Z,96729.02
2019-02-17T10:13:59.941Z,96734.16
2019-02-17T10:16:48.351Z,96740.13
2019-02-17T10:19:36.711Z,96732.92
2019-02-17T10:22:24.789Z,96730.80
2019-02-17T10:25:12.815Z,96731.06
2019-02-17T10:28:00.917Z,96731.27
2019-02-17T10:30:49.160Z,96732.03
2019-02-17T10:33:37.543Z,96730.94
2019-02-17T10:36:25.906Z,96733.38
2019-02-17T10:39:13.719Z,96732.34
2019-02-17T10:42:01.224Z,96735.86
2019-02-17T10:44:48.870Z,96730.23
2019-02-17T10:47:37.171Z,96726.09
2019-02-17T10:50:24.914Z,96723.50
2019-02-17T10:53:13.117Z,96720.07
2019-02-17T10:56:01.058Z,96714.15
2019-02-17T10:58:49.225Z,96717.28
2019-02-17T11:01:37.338Z,96710.55
2019-02-17T11:04:25.585Z,96706.50
2019-02-17T11:07:13.690Z,96707.18
2019-02-17T11:10:01.731Z,96706.25
2019-02-17T11:12:49.912Z,96700.58
2019-02-17T11:15:37.879Z,96702.19
2019-02-17T11:18:25.998Z,96694.11
2019-02-17T11:21:14.267Z,96687.64
2019-02-17T11:24:02.123Z,96683.98
2019-02-17T11:26:50.208Z,96680.34
2019-02-17T11:29:38.359Z,96683.30
2019-02-17T11:32:25.967Z,96678.95
2019-02-17T11:35:13.863Z,96677.17
2019-02-17T11:38:02.300Z,96670.27
2019-02-17T11:40:50.214Z,96670.14
2019-02-17T11:43:38.510Z,96665.33
2019-02-17T11:46:26.588Z,96659.89
2019-02-17T11:49:14.618Z,96661.00
2019-02-17T11:52:02.819Z,96652.95
2019-02-17T11:54:50.646Z,96655.37
2019-02-17T11:57:38.818Z,96645.56
2019-02-17T12:00:27.490Z,96646.27
2019-02-17T12:03:15.321Z,96647.59
2019-02-17T12:06:03.281Z,96641.69
2019-02-17T12:08:50.869Z,96638.48
2019-02-17T12:11:39.074Z,96631.20
2019-02-17T12:14:32.562Z,96636.49
2019-02-17T12:17:20.506Z,96630.39
2019-02-17T12:20:33.298Z,96628.55
2019-02-17T12:23:26.220Z,96626.79
2019-02-17T12:26:28.272Z,96620.05
2019-02-17T12:29:24.266Z,96619.55
2019-02-17T12:32:12.360Z,96612.16
2019-02-17T12:34:59.933Z,96610.08
2019-02-17T12:37:48.084Z,96606.37
2019-02-17T12:40:36.097Z,96608.33
2019-02-17T12:43:24.205Z,96604.86
2019-02-17T12:46:12.518Z,96600.64
2019-02-17T12:49:00.626Z,96597.81
2019-02-17T12:51:48.766Z,96602.00
2019-02-17T12:54:36.950Z,96595.06
2019-02-17T12:57:25.180Z,96593.37
2019-02-17T13:00:15.957Z,96585.98
2019-02-17T13:03:03.960Z,96590.41
2019-02-17T13:05:51.657Z,96589.25
2019-02-17T13:08:39.722Z,96586.29
2019-02-17T13:11:27.789Z,96582.81
2019-02-17T13:14:15.924Z,96579.10
2019-02-17T13:17:03.957Z,96577.09
2019-02-17T13:19:52.357Z,96565.72
2019-02-17T13:22:40.182Z,96570.16
2019-02-17T13:25:28.320Z,96566.25
2019-02-17T13:28:16.301Z,96558.80
2019-02-17T13:31:04.377Z,96560.42
2019-02-17T13:33:52.566Z,96551.27
2019-02-17T13:36:40.645Z,96547.05
2019-02-17T13:39:28.551Z,96545.76
2019-02-17T13:42:16.736Z,96543.70
2019-02-17T13:45:04.245Z,96539.27
2019-02-17T13:47:52.169Z,96535.81
2019-02-17T13:50:40.353Z,96529.29
2019-02-17T13:53:28.428Z,96534.34
2019-02-17T13:56:16.644Z,96523.65
2019-02-17T13:59:04.160Z,96526.06
2019-02-17T14:01:52.413Z,96520.48
2019-02-17T14:04:40.833Z,96527.19
2019-02-17T14:07:28.610Z,96523.39
2019-02-17T14:10:16.442Z,96523.20
2019-02-17T14:13:04.320Z,96520.41
2019-02-17T14:15:52.306Z,96521.05
2019-02-17T14:18:40.112Z,96521.47
2019-02-17T14:21:28.078Z,96511.47
2019-02-17T14:24:16.220Z,96509.63
2019-02-17T14:27:04.224Z,96504.23
2019-02-17T14:29:52.006Z,96504.81
2019-02-17T14:32:39.745Z,96504.77
2019-02-17T14:35:27.637Z,96498.78
2019-02-17T14:38:15.831Z,96500.63
2019-02-17T14:41:03.605Z,96494.54
2019-02-17T14:43:51.467Z,96496.35
2019-02-17T14:46:39.103Z,96489.61
2019-02-17T14:49:27.416Z,96491.79
2019-02-17T14:52:15.634Z,96491.79
2019-02-17T14:55:03.629Z,96486.53
2019-02-17T14:57:51.570Z,96483.75
2019-02-17T15:00:39.637Z,96483.27
2019-02-17T15:03:27.684Z,96483.56
2019-02-17T15:06:15.687Z,96482.95
2019-02-17T15:09:05.035Z,96479.92
2019-02-17T15:11:53.072Z,96474.99
2019-02-17T15:14:41.480Z,96470.70
2019-02-17T15:17:29.618Z,96467.30
2019-02-17T15:20:18.037Z,96464.93
2019-02-17T15:23:05.641Z,96462.00
2019-02-17T15:25:53.876Z,96459.80
2019-02-17T15:28:50.595Z,96457.11
2019-02-17T15:31:31.332Z,96454.91
2019-02-17T15:34:19.105Z,96455.65
2019-02-17T15:37:07.415Z,96449.86
2019-02-17T15:39:55.303Z,96455.98
2019-02-17T15:42:43.653Z,96454.98
2019-02-17T15:45:31.411Z,96451.95
2019-02-17T15:48:19.367Z,96448.87
2019-02-17T15:51:07.639Z,96448.72
2019-02-17T15:53:55.634Z,96447.33
2019-02-17T15:56:43.489Z,96439.66
2019-02-17T15:59:32.153Z,96446.09
2019-02-17T16:02:20.394Z,96436.48
2019-02-17T16:05:09.122Z,96429.76
2019-02-17T16:07:56.998Z,96430.00
2019-02-17T16:10:45.288Z,96430.03
2019-02-17T16:13:33.693Z,96427.72
2019-02-17T16:16:21.335Z,96423.43
2019-02-17T16:19:09.368Z,96425.42
2019-02-17T16:21:57.486Z,96427.74
2019-02-17T16:24:45.910Z,96417.83
2019-02-17T16:27:33.844Z,96420.48
2019-02-17T16:30:22.119Z,96414.95
2019-02-17T16:33:10.288Z,96420.68
2019-02-17T16:35:58.304Z,96419.37
2019-02-17T16:38:46.140Z,96422.23
2019-02-17T16:41:34.085Z,96417.99
2019-02-17T16:44:22.287Z,96423.52
2019-02-17T16:47:10.551Z,96421.03
2019-02-17T16:49:58.630Z,96424.37
2019-02-17T16:52:46.756Z,96424.78
2019-02-17T16:55:34.698Z,96428.64
2019-02-17T16:58:22.954Z,96426.17
2019-02-17T17:01:11.196Z,96425.95
2019-02-17T17:03:58.740Z,96425.87
2019-02-17T17:06:47.054Z,96430.72
2019-02-17T17:09:34.731Z,96422.48
2019-02-17T17:12:24.825Z,96420.52
2019-02-17T17:15:12.724Z,96423.47
2019-02-17T17:18:00.915Z,96428.25
2019-02-17T17:20:48.760Z,96434.52
2019-02-17T17:23:36.499Z,96433.52
2019-02-17T17:26:24.382Z,96432.92
2019-02-17T17:29:12.467Z,96434.94
2019-02-17T17:32:00.421Z,96435.31
2019-02-17T17:34:58.400Z,96440.69
2019-02-17T17:37:38.576Z,96442.37
2019-02-17T17:40:26.411Z,96442.08
2019-02-17T17:43:13.999Z,96445.59
2019-02-17T17:46:01.720Z,96444.53
2019-02-17T17:48:49.786Z,96446.76
2019-02-17T17:51:37.728Z,96448.45
2019-02-17T17:54:25.285Z,96450.00
2019-02-17T17:57:13.547Z,96451.91
2019-02-17T18:00:01.155Z,96450.67
2019-02-17T18:02:49.358Z,96449.97
2019-02-17T18:05:37.479Z,96451.52
2019-02-17T18:08:25.418Z,96451.58
2019-02-17T18:11:13.210Z,96454.16
2019-02-17T18:14:01.174Z,96451.91
2019-02-17T18:16:49.450Z,96453.45
2019-02-17T18:19:37.339Z,96458.27
2019-02-17T18:22:25.025Z,96460.08
2019-02-17T18:25:12.918Z,96459.63
2019-02-17T18:28:01.179Z,96462.98
2019-02-17T18:30:49.453Z,96461.04
2019-02-17T18:33:37.395Z,96455.06
2019-02-17T18:36:25.682Z,96460.96
2019-02-17T18:39:13.580Z,96460.64
2019-02-17T18:42:01.699Z,96457.12
2019-02-17T18:44:49.668Z,96462.78
2019-02-17T18:47:37.800Z,96461.42
2019-02-17T18:50:25.592Z,96462.24
2019-02-17T18:53:15.348Z,96457.80
2019-02-17T18:56:03.119Z,96454.84
2019-02-17T18:58:51.699Z,96456.61
2019-02-17T19:01:39.360Z,96453.91
2019-02-17T19:04:27.190Z,96445.14
2019-02-17T19:07:15.065Z,96444.15
2019-02-17T19:10:02.559Z,96437.47
2019-02-17T19:12:50.885Z,96445.67
2019-02-17T19:15:38.819Z,96439.83
2019-02-17T19:18:27.308Z,96437.26
2019-02-17T19:21:15.653Z,96439.45
2019-02-17T19:24:03.945Z,96443.06
2019-02-17T19:26:51.929Z,96438.52
2019-02-17T19:29:40.235Z,96440.27
2019-02-17T19:32:27.861Z,96439.13
2019-02-17T19:35:16.099Z,96438.05
2019-02-17T19:38:04.414Z,96439.80
2019-02-17T19:40:52.143Z,96446.14
2019-02-17T19:43:39.712Z,96443.77
2019-02-17T19:46:27.520Z,96439.95
2019-02-17T19:49:15.357Z,96440.02
2019-02-17T19:52:03.809Z,96443.12
2019-02-17T19:54:51.999Z,96447.17
2019-02-17T19:57:40.321Z,96451.27
2019-02-17T20:00:28.215Z,96450.39
2019-02-17T20:03:34.737Z,96448.36
2019-02-17T20:06:24.653Z,96446.45
2019-02-17T20:09:19.669Z,96450.50
2019-02-17T20:12:07.979Z,96456.80
2019-02-17T20:14:56.210Z,96459.28
2019-02-17T20:17:45.264Z,96464.39
2019-02-17T20:20:33.633Z,96459.64
2019-02-17T20:23:21.890Z,96459.60
2019-02-17T20:26:10.639Z,96466.33
2019-02-17T20:28:59.124Z,96465.12
2019-02-17T20:31:47.057Z,96469.31
2019-02-17T20:34:35.219Z,96465.95
2019-02-17T20:37:25.325Z,96467.22
2019-02-17T20:40:12.765Z,96472.94
2019-02-17T20:43:01.497Z,96478.22
2019-02-17T20:45:49.341Z,96475.98
2019-02-17T20:48:37.153Z,96475.17
2019-02-17T20:51:24.918Z,96475.47
2019-02-17T20:54:12.772Z,96472.41
2019-02-17T20:57:00.591Z,96474.11
2019-02-17T20:59:48.426Z,96475.83
2019-02-17T21:02:36.599Z,96473.09
2019-02-17T21:05:24.683Z,96477.48
2019-02-17T21:08:12.618Z,96475.45
2019-02-17T21:11:01.100Z,96476.73
2019-02-17T21:13:49.344Z,96477.53
2019-02-17T21:16:37.173Z,96478.71
2019-02-17T21:19:25.037Z,96471.19
2019-02-17T21:22:13.039Z,96469.61
2019-02-17T21:25:01.394Z,96473.09
2019-02-17T21:27:49.003Z,96474.33
2019-02-17T21:30:37.118Z,96466.55
2019-02-17T21:33:24.972Z,96470.61
2019-02-17T21:36:22.569Z,96467.30
2019-02-17T21:39:03.474Z,96469.81
2019-02-17T21:41:51.544Z,96466.02
2019-02-17T21:44:39.479Z,96462.91
2019-02-17T21:47:27.548Z,96462.73
2019-02-17T21:50:15.721Z,96464.09
2019-02-17T21:53:04.122Z,96462.80
2019-02-17T21:55:51.967Z,96462.73
2019-02-17T21:58:40.031Z,96461.12
2019-02-17T22:01:28.220Z,96453.78
2019-02-17T22:04:16.452Z,96446.77
2019-02-17T22:07:04.321Z,96453.55
2019-02-17T22:09:52.367Z,96456.02
2019-02-17T22:12:40.686Z,96452.38
2019-02-17T22:15:28.887Z,96448.05
2019-02-17T22:18:16.787Z,96443.33
2019-02-17T22:21:05.341Z,96451.88
2019-02-17T22:23:53.614Z,96449.82
2019-02-17T22:26:41.883Z,96435.81
2019-02-17T22:29:30.046Z,96439.93
2019-02-17T22:32:18.074Z,96441.00
2019-02-17T22:35:06.820Z,96437.31
2019-02-17T22:37:55.210Z,96436.69
2019-02-17T22:40:43.410Z,96430.49
2019-02-17T22:43:31.561Z,96433.27
2019-02-17T22:46:19.234Z,96430.80
2019-02-17T22:49:07.564Z,96431.45
2019-02-17T22:51:55.735Z,96440.20
2019-02-17T22:54:43.618Z,96435.13
2019-02-17T22:57:31.756Z,96432.53
2019-02-17T23:00:30.774Z,96430.06
2019-02-17T23:03:18.656Z,96432.05
2019-02-17T23:06:06.878Z,96428.91
2019-02-17T23:08:55.289Z,96431.31
2019-02-17T23:11:44.230Z,96434.83
2019-02-17T23:14:32.186Z,96437.29
2019-02-17T23:17:19.974Z,96433.25
2019-02-17T23:20:08.480Z,96428.63
2019-02-17T23:22:56.846Z,96423.47
2019-02-17T23:25:44.910Z,96430.03
2019-02-17T23:28:32.791Z,96429.91
2019-02-17T23:31:20.381Z,96424.23
2019-02-17T23:34:08.465Z,96431.50
2019-02-17T23:37:03.727Z,96425.81
2019-02-17T23:39:46.042Z,96432.86
2019-02-17T23:42:33.544Z,96429.60
2019-02-17T23:45:21.981Z,96430.17
2019-02-17T23:48:10.280Z,96424.02
2019-02-17T23:50:58.408Z,96424.84
2019-02-17T23:53:46.341Z,96426.46
2019-02-17T23:56:34.587Z,96420.33
2019-02-17T23:59:22.594Z,96425.41
